Pagina principale
METAR-TAF:

METAR-TAF

Aeroporti :

Aeroporto di Carcassonne Salvaza

Carcassonne, Francia

latitudine: 43-13N, longitudine: 002-19E, altezza: 130 m

Osservazione

Il bollettino è stato emesso 23 minuti fa, alle 23:30 UTC
Vento 10 kt da est
Temperature 18°C
Umidità 88%
Pressione 1017 hPa
Visibilità 10 km o più
Nuvoloso ad un'altezza di 1000 ft

METAR: LFMK 292330Z AUTO 09010KT 9999 BKN010 18/16 Q1017

Ora: 01:53 (23:53 UTC)


TAF: mancante

Osservazioni e previsioni meteorologiche di più di 4000 aeroporti (messaggi METAR e TAF).

Le stazioni disponibili sono rappresentate dai dischi gialli e rossi sulla carta.

Puntare il mouse per vedere il nome della stazione.

Clicca sopra per visualizzare le osservazioni e previsioni meteorologiche.

Per cambiare la mappa : fare clic sui pulsanti verdi con una croce nera per ingrandire, il pulsante verde con un trattino per diminuire, o sulla freccia verde per le mappe adiacenti.


METAR-TAF: